sensor_id;sensor_type;location;lat;lon;timestamp;pressure;altitude;pressure_sealevel;temperature;humidity
8894;BME280;4483;48.622;9.230;2023-03-08T00:00:12;96588.13;;;4.56;55.55
8894;BME280;4483;48.622;9.230;2023-03-08T00:02:40;96586.16;;;4.62;56.34
8894;BME280;4483;48.622;9.230;2023-03-08T00:05:08;96597.47;;;4.55;55.85
8894;BME280;4483;48.622;9.230;2023-03-08T00:07:35;96591.66;;;4.52;56.42
8894;BME280;4483;48.622;9.230;2023-03-08T00:10:02;96592.31;;;4.57;56.36
8894;BME280;4483;48.622;9.230;2023-03-08T00:12:29;96599.69;;;4.64;56.35
8894;BME280;4483;48.622;9.230;2023-03-08T00:14:56;96600.69;;;4.60;56.07
8894;BME280;4483;48.622;9.230;2023-03-08T00:17:23;96597.63;;;4.51;56.63
8894;BME280;4483;48.622;9.230;2023-03-08T00:19:51;96595.34;;;4.45;56.48
8894;BME280;4483;48.622;9.230;2023-03-08T00:22:18;96596.72;;;4.53;56.60
8894;BME280;4483;48.622;9.230;2023-03-08T00:24:45;96591.25;;;4.62;56.58
8894;BME280;4483;48.622;9.230;2023-03-08T00:27:11;96593.94;;;4.59;56.91
8894;BME280;4483;48.622;9.230;2023-03-08T00:29:38;96593.16;;;4.57;56.84
8894;BME280;4483;48.622;9.230;2023-03-08T00:32:05;96589.91;;;4.54;56.92
8894;BME280;4483;48.622;9.230;2023-03-08T00:34:32;96594.66;;;4.63;57.12
8894;BME280;4483;48.622;9.230;2023-03-08T00:37:00;96602.13;;;4.67;56.87
8894;BME280;4483;48.622;9.230;2023-03-08T00:39:26;96600.47;;;4.66;57.26
8894;BME280;4483;48.622;9.230;2023-03-08T00:41:53;96599.81;;;4.61;57.07
8894;BME280;4483;48.622;9.230;2023-03-08T00:44:19;96601.88;;;4.52;57.20
8894;BME280;4483;48.622;9.230;2023-03-08T00:46:46;96604.56;;;4.47;57.17
8894;BME280;4483;48.622;9.230;2023-03-08T00:49:13;96604.69;;;4.44;57.45
8894;BME280;4483;48.622;9.230;2023-03-08T00:51:39;96606.53;;;4.41;57.94
8894;BME280;4483;48.622;9.230;2023-03-08T00:54:07;96600.69;;;4.37;58.32
8894;BME280;4483;48.622;9.230;2023-03-08T00:56:34;96588.88;;;4.35;57.95
8894;BME280;4483;48.622;9.230;2023-03-08T00:59:01;96583.13;;;4.30;58.16
8894;BME280;4483;48.622;9.230;2023-03-08T01:01:27;96581.44;;;4.29;58.43
8894;BME280;4483;48.622;9.230;2023-03-08T01:03:54;96584.06;;;4.27;58.46
8894;BME280;4483;48.622;9.230;2023-03-08T01:06:20;96592.59;;;4.26;58.72
8894;BME280;4483;48.622;9.230;2023-03-08T01:08:47;96589.34;;;4.23;58.50
8894;BME280;4483;48.622;9.230;2023-03-08T01:11:17;96586.09;;;4.18;58.83
8894;BME280;4483;48.622;9.230;2023-03-08T01:13:44;96586.28;;;4.13;58.81
8894;BME280;4483;48.622;9.230;2023-03-08T01:16:15;96585.59;;;4.08;59.04
8894;BME280;4483;48.622;9.230;2023-03-08T01:18:42;96576.41;;;4.04;59.10
8894;BME280;4483;48.622;9.230;2023-03-08T01:21:09;96572.16;;;4.03;59.26
8894;BME280;4483;48.622;9.230;2023-03-08T01:23:37;96573.97;;;4.01;59.38
8894;BME280;4483;48.622;9.230;2023-03-08T01:26:05;96563.88;;;3.98;59.50
8894;BME280;4483;48.622;9.230;2023-03-08T01:28:34;96554.66;;;3.94;59.57
8894;BME280;4483;48.622;9.230;2023-03-08T01:31:02;96543.03;;;3.87;59.21
8894;BME280;4483;48.622;9.230;2023-03-08T01:33:29;96536.28;;;3.86;59.77
8894;BME280;4483;48.622;9.230;2023-03-08T01:35:56;96535.56;;;3.82;59.94
8894;BME280;4483;48.622;9.230;2023-03-08T01:38:23;96532.28;;;3.79;59.89
8894;BME280;4483;48.622;9.230;2023-03-08T01:40:54;96520.69;;;3.70;60.27
8894;BME280;4483;48.622;9.230;2023-03-08T01:43:27;96529.22;;;3.69;60.36
8894;BME280;4483;48.622;9.230;2023-03-08T01:46:10;96529.31;;;3.66;60.18
8894;BME280;4483;48.622;9.230;2023-03-08T01:48:42;96519.19;;;3.65;60.46
8894;BME280;4483;48.622;9.230;2023-03-08T01:51:13;96514.19;;;3.62;60.61
8894;BME280;4483;48.622;9.230;2023-03-08T01:53:41;96501.59;;;3.59;60.84
8894;BME280;4483;48.622;9.230;2023-03-08T01:56:11;96491.47;;;3.56;60.72
8894;BME280;4483;48.622;9.230;2023-03-08T01:58:39;96491.59;;;3.53;60.94
8894;BME280;4483;48.622;9.230;2023-03-08T02:01:08;96488.34;;;3.49;61.07
8894;BME280;4483;48.622;9.230;2023-03-08T02:03:34;96485.13;;;3.44;61.05
8894;BME280;4483;48.622;9.230;2023-03-08T02:06:01;96484.38;;;3.41;61.29
8894;BME280;4483;48.622;9.230;2023-03-08T02:08:28;96482.84;;;3.37;61.42
8894;BME280;4483;48.622;9.230;2023-03-08T02:10:56;96474.41;;;3.35;61.47
8894;BME280;4483;48.622;9.230;2023-03-08T02:13:23;96483.69;;;3.36;61.77
8894;BME280;4483;48.622;9.230;2023-03-08T02:15:51;96488.00;;;3.34;61.79
8894;BME280;4483;48.622;9.230;2023-03-08T02:18:22;96486.34;;;3.33;61.86
8894;BME280;4483;48.622;9.230;2023-03-08T02:20:49;96488.97;;;3.31;61.91
8894;BME280;4483;48.622;9.230;2023-03-08T02:23:19;96478.81;;;3.30;62.08
8894;BME280;4483;48.622;9.230;2023-03-08T02:25:50;96481.53;;;3.25;62.01
8894;BME280;4483;48.622;9.230;2023-03-08T02:28:17;96481.63;;;3.22;62.25
8894;BME280;4483;48.622;9.230;2023-03-08T02:30:44;96465.53;;;3.22;62.65
8894;BME280;4483;48.622;9.230;2023-03-08T02:33:11;96457.09;;;3.20;62.44
8894;BME280;4483;48.622;9.230;2023-03-08T02:35:38;96452.22;;;3.14;62.75
8894;BME280;4483;48.622;9.230;2023-03-08T02:38:07;96453.78;;;3.18;62.76
8894;BME280;4483;48.622;9.230;2023-03-08T02:40:35;96453.13;;;3.13;62.74
8894;BME280;4483;48.622;9.230;2023-03-08T02:43:02;96452.38;;;3.09;63.17
8894;BME280;4483;48.622;9.230;2023-03-08T02:45:28;96444.75;;;3.09;63.20
8894;BME280;4483;48.622;9.230;2023-03-08T02:47:55;96446.41;;;3.10;63.33
8894;BME280;4483;48.622;9.230;2023-03-08T02:50:22;96441.22;;;3.13;63.50
8894;BME280;4483;48.622;9.230;2023-03-08T02:52:48;96442.16;;;3.11;63.60
8894;BME280;4483;48.622;9.230;2023-03-08T02:55:15;96437.84;;;3.13;63.52
8894;BME280;4483;48.622;9.230;2023-03-08T02:57:43;96433.63;;;3.12;63.87
8894;BME280;4483;48.622;9.230;2023-03-08T03:00:10;96423.44;;;3.12;63.65
8894;BME280;4483;48.622;9.230;2023-03-08T03:02:37;96426.81;;;3.12;63.74
8894;BME280;4483;48.622;9.230;2023-03-08T03:05:06;96415.72;;;3.15;63.64
8894;BME280;4483;48.622;9.230;2023-03-08T03:07:35;96406.31;;;3.17;63.92
8894;BME280;4483;48.622;9.230;2023-03-08T03:10:02;96407.13;;;3.19;63.90
8894;BME280;4483;48.622;9.230;2023-03-08T03:12:29;96409.53;;;3.22;63.74
8894;BME280;4483;48.622;9.230;2023-03-08T03:14:57;96404.34;;;3.25;63.92
8894;BME280;4483;48.622;9.230;2023-03-08T03:17:23;96394.94;;;3.27;63.75
8894;BME280;4483;48.622;9.230;2023-03-08T03:19:50;96389.84;;;3.27;63.90
8894;BME280;4483;48.622;9.230;2023-03-08T03:22:17;96374.75;;;3.22;63.81
8894;BME280;4483;48.622;9.230;2023-03-08T03:24:43;96384.81;;;3.25;63.86
8894;BME280;4483;48.622;9.230;2023-03-08T03:27:10;96366.41;;;3.19;64.33
8894;BME280;4483;48.622;9.230;2023-03-08T03:29:37;96372.22;;;3.22;64.51
8894;BME280;4483;48.622;9.230;2023-03-08T03:32:06;96364.59;;;3.21;64.54
8894;BME280;4483;48.622;9.230;2023-03-08T03:34:33;96363.53;;;3.28;64.70
8894;BME280;4483;48.622;9.230;2023-03-08T03:36:59;96359.16;;;3.31;64.39
8894;BME280;4483;48.622;9.230;2023-03-08T03:39:26;96357.28;;;3.36;64.46
8894;BME280;4483;48.622;9.230;2023-03-08T03:41:58;96349.69;;;3.35;64.45
8894;BME280;4483;48.622;9.230;2023-03-08T03:44:24;96340.72;;;3.48;64.27
8894;BME280;4483;48.622;9.230;2023-03-08T03:46:53;96345.69;;;3.51;64.05
8894;BME280;4483;48.622;9.230;2023-03-08T03:49:21;96338.06;;;3.51;64.04
8894;BME280;4483;48.622;9.230;2023-03-08T03:51:48;96335.44;;;3.52;64.21
8894;BME280;4483;48.622;9.230;2023-03-08T03:54:15;96327.69;;;3.55;64.11
8894;BME280;4483;48.622;9.230;2023-03-08T03:56:41;96323.44;;;3.56;64.17
8894;BME280;4483;48.622;9.230;2023-03-08T03:59:08;96325.13;;;3.57;64.06
8894;BME280;4483;48.622;9.230;2023-03-08T04:01:35;96321.59;;;3.59;64.13
8894;BME280;4483;48.622;9.230;2023-03-08T04:04:01;96335.06;;;3.63;64.11
8894;BME280;4483;48.622;9.230;2023-03-08T04:06:31;96328.31;;;3.62;64.20
8894;BME280;4483;48.622;9.230;2023-03-08T04:08:59;96316.44;;;3.61;64.13
8894;BME280;4483;48.622;9.230;2023-03-08T04:11:30;96313.81;;;3.64;64.17
8894;BME280;4483;48.622;9.230;2023-03-08T04:13:58;96326.41;;;3.67;64.14
8894;BME280;4483;48.622;9.230;2023-03-08T04:16:26;96321.53;;;3.61;64.20
8894;BME280;4483;48.622;9.230;2023-03-08T04:18:54;96318.13;;;3.62;64.39
8894;BME280;4483;48.622;9.230;2023-03-08T04:21:21;96318.97;;;3.62;64.45
8894;BME280;4483;48.622;9.230;2023-03-08T04:23:49;96314.75;;;3.61;64.44
8894;BME280;4483;48.622;9.230;2023-03-08T04:26:16;96310.56;;;3.60;64.49
8894;BME280;4483;48.622;9.230;2023-03-08T04:28:43;96314.75;;;3.61;64.58
8894;BME280;4483;48.622;9.230;2023-03-08T04:31:11;96316.41;;;3.62;64.59
8894;BME280;4483;48.622;9.230;2023-03-08T04:33:38;96316.44;;;3.61;64.78
8894;BME280;4483;48.622;9.230;2023-03-08T04:36:05;96319.91;;;3.60;64.78
8894;BME280;4483;48.622;9.230;2023-03-08T04:38:32;96319.19;;;3.56;65.35
8894;BME280;4483;48.622;9.230;2023-03-08T04:41:02;96315.81;;;3.56;65.21
8894;BME280;4483;48.622;9.230;2023-03-08T04:43:34;96303.91;;;3.56;65.20
8894;BME280;4483;48.622;9.230;2023-03-08T04:46:02;96293.72;;;3.56;65.24
8894;BME280;4483;48.622;9.230;2023-03-08T04:48:29;96293.66;;;3.58;65.20
8894;BME280;4483;48.622;9.230;2023-03-08T04:50:57;96300.44;;;3.59;65.28
8894;BME280;4483;48.622;9.230;2023-03-08T04:53:24;96297.03;;;3.58;65.36
8894;BME280;4483;48.622;9.230;2023-03-08T04:55:52;96291.19;;;3.56;65.25
8894;BME280;4483;48.622;9.230;2023-03-08T04:58:20;96288.69;;;3.55;65.51
8894;BME280;4483;48.622;9.230;2023-03-08T05:00:47;96279.28;;;3.57;65.61
8894;BME280;4483;48.622;9.230;2023-03-08T05:03:14;96270.69;;;3.59;65.75
8894;BME280;4483;48.622;9.230;2023-03-08T05:05:44;96262.09;;;3.62;65.75
8894;BME280;4483;48.622;9.230;2023-03-08T05:08:11;96266.25;;;3.64;65.50
8894;BME280;4483;48.622;9.230;2023-03-08T05:10:38;96252.50;;;3.68;65.70
8894;BME280;4483;48.622;9.230;2023-03-08T05:13:05;96249.00;;;3.71;65.71
8894;BME280;4483;48.622;9.230;2023-03-08T05:15:34;96246.34;;;3.74;65.29
8894;BME280;4483;48.622;9.230;2023-03-08T05:18:00;96248.84;;;3.75;65.47
8894;BME280;4483;48.622;9.230;2023-03-08T05:20:27;96254.69;;;3.77;65.32
8894;BME280;4483;48.622;9.230;2023-03-08T05:22:53;96255.41;;;3.81;65.37
8894;BME280;4483;48.622;9.230;2023-03-08T05:25:20;96264.41;;;3.89;65.25
8894;BME280;4483;48.622;9.230;2023-03-08T05:27:46;96255.56;;;3.98;64.92
8894;BME280;4483;48.622;9.230;2023-03-08T05:30:14;96251.53;;;3.92;64.90
8894;BME280;4483;48.622;9.230;2023-03-08T05:32:42;96249.97;;;3.90;64.80
8894;BME280;4483;48.622;9.230;2023-03-08T05:35:08;96243.13;;;3.90;64.89
8894;BME280;4483;48.622;9.230;2023-03-08T05:37:35;96233.78;;;3.91;65.11
8894;BME280;4483;48.622;9.230;2023-03-08T05:40:02;96236.25;;;3.92;65.15
8894;BME280;4483;48.622;9.230;2023-03-08T05:42:30;96226.06;;;3.92;64.85
8894;BME280;4483;48.622;9.230;2023-03-08T05:44:57;96221.81;;;3.93;65.08
8894;BME280;4483;48.622;9.230;2023-03-08T05:47:24;96221.81;;;3.93;65.06
8894;BME280;4483;48.622;9.230;2023-03-08T05:49:52;96219.13;;;3.96;65.20
8894;BME280;4483;48.622;9.230;2023-03-08T05:52:18;96214.75;;;3.99;65.12
8894;BME280;4483;48.622;9.230;2023-03-08T05:54:45;96200.44;;;3.97;64.93
8894;BME280;4483;48.622;9.230;2023-03-08T05:57:12;96206.16;;;4.02;64.99
8894;BME280;4483;48.622;9.230;2023-03-08T05:59:38;96207.69;;;4.06;64.81
8894;BME280;4483;48.622;9.230;2023-03-08T06:02:05;96211.00;;;4.08;64.87
8894;BME280;4483;48.622;9.230;2023-03-08T06:04:31;96214.31;;;4.10;64.91
8894;BME280;4483;48.622;9.230;2023-03-08T06:06:59;96214.19;;;4.13;64.88
8894;BME280;4483;48.622;9.230;2023-03-08T06:09:26;96214.88;;;4.17;64.86
8894;BME280;4483;48.622;9.230;2023-03-08T06:11:53;96208.84;;;4.19;64.81
8894;BME280;4483;48.622;9.230;2023-03-08T06:14:20;96210.41;;;4.22;64.91
8894;BME280;4483;48.622;9.230;2023-03-08T06:16:46;96205.25;;;4.23;64.80
8894;BME280;4483;48.622;9.230;2023-03-08T06:19:13;96206.84;;;4.26;64.74
8894;BME280;4483;48.622;9.230;2023-03-08T06:21:40;96213.63;;;4.27;64.56
8894;BME280;4483;48.622;9.230;2023-03-08T06:24:09;96199.91;;;4.29;64.78
8894;BME280;4483;48.622;9.230;2023-03-08T06:26:35;96205.84;;;4.30;64.73
8894;BME280;4483;48.622;9.230;2023-03-08T06:29:02;96196.47;;;4.30;65.06
8894;BME280;4483;48.622;9.230;2023-03-08T06:31:29;96193.94;;;4.30;65.06
8894;BME280;4483;48.622;9.230;2023-03-08T06:33:55;96185.38;;;4.31;65.06
8894;BME280;4483;48.622;9.230;2023-03-08T06:36:22;96186.16;;;4.33;65.55
8894;BME280;4483;48.622;9.230;2023-03-08T06:38:49;96175.94;;;4.33;65.60
8894;BME280;4483;48.622;9.230;2023-03-08T06:41:18;96183.38;;;4.38;65.54
8894;BME280;4483;48.622;9.230;2023-03-08T06:43:45;96169.75;;;4.39;65.85
8894;BME280;4483;48.622;9.230;2023-03-08T06:46:15;96162.19;;;4.37;65.72
8894;BME280;4483;48.622;9.230;2023-03-08T06:48:42;96160.41;;;4.39;65.65
8894;BME280;4483;48.622;9.230;2023-03-08T06:51:09;96151.09;;;4.38;65.80
8894;BME280;4483;48.622;9.230;2023-03-08T06:53:36;96151.69;;;4.43;65.83
8894;BME280;4483;48.622;9.230;2023-03-08T06:56:03;96148.13;;;4.47;66.77
8894;BME280;4483;48.622;9.230;2023-03-08T06:58:32;96139.47;;;4.51;66.11
8894;BME280;4483;48.622;9.230;2023-03-08T07:00:59;96131.63;;;4.56;66.11
8894;BME280;4483;48.622;9.230;2023-03-08T07:03:29;96130.53;;;4.61;65.65
8894;BME280;4483;48.622;9.230;2023-03-08T07:05:57;96128.44;;;4.69;65.87
8894;BME280;4483;48.622;9.230;2023-03-08T07:08:24;96125.00;;;4.70;66.10
8894;BME280;4483;48.622;9.230;2023-03-08T07:10:51;96123.22;;;4.72;65.66
8894;BME280;4483;48.622;9.230;2023-03-08T07:13:18;96114.59;;;4.75;66.03
8894;BME280;4483;48.622;9.230;2023-03-08T07:15:49;96116.19;;;4.77;65.68
8894;BME280;4483;48.622;9.230;2023-03-08T07:18:16;96106.66;;;4.81;65.68
8894;BME280;4483;48.622;9.230;2023-03-08T07:20:43;96103.16;;;4.83;65.34
8894;BME280;4483;48.622;9.230;2023-03-08T07:23:09;96097.16;;;4.84;65.43
8894;BME280;4483;48.622;9.230;2023-03-08T07:25:37;96094.53;;;4.86;65.78
8894;BME280;4483;48.622;9.230;2023-03-08T07:28:05;96091.91;;;4.87;65.67
8894;BME280;4483;48.622;9.230;2023-03-08T07:30:32;96093.25;;;4.94;65.89
8894;BME280;4483;48.622;9.230;2023-03-08T07:32:59;96085.41;;;4.99;65.83
8894;BME280;4483;48.622;9.230;2023-03-08T07:35:26;96085.06;;;5.06;65.92
8894;BME280;4483;48.622;9.230;2023-03-08T07:37:53;96089.88;;;5.13;65.56
8894;BME280;4483;48.622;9.230;2023-03-08T07:40:20;96076.81;;;5.19;65.84
8894;BME280;4483;48.622;9.230;2023-03-08T07:42:46;96071.41;;;5.25;65.81
8894;BME280;4483;48.622;9.230;2023-03-08T07:45:13;96063.69;;;5.26;65.37
8894;BME280;4483;48.622;9.230;2023-03-08T07:47:40;96059.25;;;5.30;65.24
8894;BME280;4483;48.622;9.230;2023-03-08T07:50:10;96063.31;;;5.34;65.72
8894;BME280;4483;48.622;9.230;2023-03-08T07:52:37;96058.06;;;5.37;65.87
8894;BME280;4483;48.622;9.230;2023-03-08T07:55:04;96058.69;;;5.42;65.46
8894;BME280;4483;48.622;9.230;2023-03-08T07:57:31;96060.25;;;5.44;65.82
8894;BME280;4483;48.622;9.230;2023-03-08T07:59:58;96044.91;;;5.44;65.41
8894;BME280;4483;48.622;9.230;2023-03-08T08:02:24;96047.34;;;5.47;65.53
8894;BME280;4483;48.622;9.230;2023-03-08T08:04:51;96037.81;;;5.51;65.52
8894;BME280;4483;48.622;9.230;2023-03-08T08:07:19;96030.91;;;5.53;65.49
8894;BME280;4483;48.622;9.230;2023-03-08T08:09:46;96016.25;;;5.56;65.26
8894;BME280;4483;48.622;9.230;2023-03-08T08:12:12;96015.19;;;5.60;65.87
8894;BME280;4483;48.622;9.230;2023-03-08T08:14:39;96012.31;;;5.66;65.50
8894;BME280;4483;48.622;9.230;2023-03-08T08:17:06;95999.41;;;5.69;65.27
8894;BME280;4483;48.622;9.230;2023-03-08T08:19:32;95979.63;;;5.73;65.37
8894;BME280;4483;48.622;9.230;2023-03-08T08:21:59;95977.88;;;5.73;65.68
8894;BME280;4483;48.622;9.230;2023-03-08T08:24:27;95975.56;;;5.69;65.36
8894;BME280;4483;48.622;9.230;2023-03-08T08:26:55;95963.84;;;5.65;64.93
8894;BME280;4483;48.622;9.230;2023-03-08T08:29:22;95960.41;;;5.66;64.63
8894;BME280;4483;48.622;9.230;2023-03-08T08:31:49;95967.31;;;5.64;65.08
8894;BME280;4483;48.622;9.230;2023-03-08T08:34:17;95968.13;;;5.64;64.88
8894;BME280;4483;48.622;9.230;2023-03-08T08:36:43;95962.22;;;5.64;65.13
8894;BME280;4483;48.622;9.230;2023-03-08T08:39:10;95942.19;;;5.72;65.02
8894;BME280;4483;48.622;9.230;2023-03-08T08:41:38;95946.25;;;5.76;64.70
8894;BME280;4483;48.622;9.230;2023-03-08T08:44:05;95943.47;;;5.80;65.20
8894;BME280;4483;48.622;9.230;2023-03-08T08:46:32;95938.22;;;5.83;64.80
8894;BME280;4483;48.622;9.230;2023-03-08T08:48:59;95933.88;;;5.85;64.60
8894;BME280;4483;48.622;9.230;2023-03-08T08:51:26;95938.13;;;5.85;64.96
8894;BME280;4483;48.622;9.230;2023-03-08T08:53:54;95932.13;;;5.86;64.72
8894;BME280;4483;48.622;9.230;2023-03-08T08:56:22;95929.50;;;5.87;65.07
8894;BME280;4483;48.622;9.230;2023-03-08T08:58:51;95926.84;;;5.89;65.12
8894;BME280;4483;48.622;9.230;2023-03-08T09:01:19;95925.81;;;5.93;65.73
8894;BME280;4483;48.622;9.230;2023-03-08T09:03:47;95908.56;;;5.96;65.79
8894;BME280;4483;48.622;9.230;2023-03-08T09:06:15;95919.44;;;6.00;65.14
8894;BME280;4483;48.622;9.230;2023-03-08T09:08:44;95914.09;;;6.04;65.62
8894;BME280;4483;48.622;9.230;2023-03-08T09:11:11;95908.81;;;6.07;65.22
8894;BME280;4483;48.622;9.230;2023-03-08T09:13:37;95906.94;;;6.11;65.46
8894;BME280;4483;48.622;9.230;2023-03-08T09:16:16;95911.88;;;6.14;65.34
8894;BME280;4483;48.622;9.230;2023-03-08T09:18:43;95915.91;;;6.18;65.32
8894;BME280;4483;48.622;9.230;2023-03-08T09:21:10;95922.44;;;6.24;65.87
8894;BME280;4483;48.622;9.230;2023-03-08T09:23:36;95910.31;;;6.27;65.18
8894;BME280;4483;48.622;9.230;2023-03-08T09:26:03;95915.09;;;6.33;65.33
8894;BME280;4483;48.622;9.230;2023-03-08T09:28:30;95905.53;;;6.37;65.61
8894;BME280;4483;48.622;9.230;2023-03-08T09:30:57;95912.03;;;6.42;65.38
8894;BME280;4483;48.622;9.230;2023-03-08T09:33:25;95896.59;;;6.44;65.16
8894;BME280;4483;48.622;9.230;2023-03-08T09:35:55;95897.25;;;6.47;65.22
8894;BME280;4483;48.622;9.230;2023-03-08T09:38:22;95881.00;;;6.48;65.18
8894;BME280;4483;48.622;9.230;2023-03-08T09:40:58;95883.47;;;6.50;65.36
8894;BME280;4483;48.622;9.230;2023-03-08T09:43:43;95872.09;;;6.55;64.88
8894;BME280;4483;48.622;9.230;2023-03-08T09:46:12;95857.28;;;6.60;65.20
8894;BME280;4483;48.622;9.230;2023-03-08T09:48:45;95863.88;;;6.64;64.74
8894;BME280;4483;48.622;9.230;2023-03-08T09:51:12;95848.09;;;6.72;64.60
8894;BME280;4483;48.622;9.230;2023-03-08T09:53:46;95851.13;;;6.78;64.89
8894;BME280;4483;48.622;9.230;2023-03-08T09:56:20;95851.00;;;6.95;65.41
8894;BME280;4483;48.622;9.230;2023-03-08T09:58:53;95849.09;;;7.13;64.75
8894;BME280;4483;48.622;9.230;2023-03-08T10:01:37;95844.25;;;7.23;65.20
8894;BME280;4483;48.622;9.230;2023-03-08T10:04:14;95843.53;;;7.35;65.17
8894;BME280;4483;48.622;9.230;2023-03-08T10:06:54;95835.13;;;7.47;65.35
8894;BME280;4483;48.622;9.230;2023-03-08T10:09:29;95824.84;;;7.61;65.31
8894;BME280;4483;48.622;9.230;2023-03-08T10:12:00;95837.00;;;7.71;65.12
8894;BME280;4483;48.622;9.230;2023-03-08T10:14:30;95834.63;;;7.82;65.48
8894;BME280;4483;48.622;9.230;2023-03-08T10:17:02;95827.19;;;7.92;65.31
8894;BME280;4483;48.622;9.230;2023-03-08T10:19:36;95825.72;;;8.02;65.51
8894;BME280;4483;48.622;9.230;2023-03-08T10:22:10;95832.44;;;8.17;65.40
8894;BME280;4483;48.622;9.230;2023-03-08T10:24:44;95819.69;;;8.30;66.21
8894;BME280;4483;48.622;9.230;2023-03-08T10:27:18;95816.03;;;8.46;67.41
8894;BME280;4483;48.622;9.230;2023-03-08T10:29:50;95828.28;;;8.55;67.15
8894;BME280;4483;48.622;9.230;2023-03-08T10:32:17;95809.66;;;8.78;69.27
8894;BME280;4483;48.622;9.230;2023-03-08T10:34:45;95811.22;;;8.93;69.24
8894;BME280;4483;48.622;9.230;2023-03-08T10:37:11;95815.03;;;9.13;69.52
8894;BME280;4483;48.622;9.230;2023-03-08T10:39:48;95801.44;;;9.36;69.89
8894;BME280;4483;48.622;9.230;2023-03-08T10:42:18;95805.16;;;9.57;70.33
8894;BME280;4483;48.622;9.230;2023-03-08T10:44:53;95800.97;;;9.80;70.49
8894;BME280;4483;48.622;9.230;2023-03-08T10:47:22;95778.47;;;10.07;69.77
8894;BME280;4483;48.622;9.230;2023-03-08T10:50:05;95781.94;;;10.42;70.14
8894;BME280;4483;48.622;9.230;2023-03-08T10:52:31;95763.78;;;10.67;69.29
8894;BME280;4483;48.622;9.230;2023-03-08T10:55:03;95764.63;;;10.90;69.70
8894;BME280;4483;48.622;9.230;2023-03-08T10:57:32;95770.19;;;11.07;69.41
8894;BME280;4483;48.622;9.230;2023-03-08T11:00:06;95768.31;;;11.21;69.28
8894;BME280;4483;48.622;9.230;2023-03-08T11:02:43;95771.97;;;11.40;68.79
8894;BME280;4483;48.622;9.230;2023-03-08T11:05:20;95765.50;;;11.46;68.34
8894;BME280;4483;48.622;9.230;2023-03-08T11:07:53;95771.59;;;11.56;68.70
8894;BME280;4483;48.622;9.230;2023-03-08T11:10:22;95748.88;;;11.72;68.06
8894;BME280;4483;48.622;9.230;2023-03-08T11:13:00;95764.09;;;11.86;68.01
8894;BME280;4483;48.622;9.230;2023-03-08T11:15:28;95756.91;;;12.00;67.67
8894;BME280;4483;48.622;9.230;2023-03-08T11:18:03;95756.03;;;12.22;67.24
8894;BME280;4483;48.622;9.230;2023-03-08T11:20:38;95758.91;;;12.40;66.66
8894;BME280;4483;48.622;9.230;2023-03-08T11:23:15;95747.88;;;12.58;65.66
8894;BME280;4483;48.622;9.230;2023-03-08T11:25:52;95742.66;;;12.90;64.94
8894;BME280;4483;48.622;9.230;2023-03-08T11:28:39;95748.97;;;13.18;65.31
8894;BME280;4483;48.622;9.230;2023-03-08T11:31:13;95759.25;;;13.29;64.48
8894;BME280;4483;48.622;9.230;2023-03-08T11:36:48;95762.41;;;13.72;63.01
8894;BME280;4483;48.622;9.230;2023-03-08T11:39:20;95741.50;;;13.94;62.61
8894;BME280;4483;48.622;9.230;2023-03-08T11:41:52;95749.41;;;13.92;61.78
8894;BME280;4483;48.622;9.230;2023-03-08T11:50:46;95770.84;;;13.74;62.48
8894;BME280;4483;48.622;9.230;2023-03-08T11:53:21;95781.44;;;13.61;62.88
8894;BME280;4483;48.622;9.230;2023-03-08T11:56:01;95755.28;;;13.55;63.44
8894;BME280;4483;48.622;9.230;2023-03-08T11:58:34;95771.31;;;13.49;63.48
8894;BME280;4483;48.622;9.230;2023-03-08T12:01:05;95760.56;;;13.44;64.05
8894;BME280;4483;48.622;9.230;2023-03-08T12:03:37;95749.88;;;13.37;63.72
8894;BME280;4483;48.622;9.230;2023-03-08T12:06:09;95761.06;;;13.38;63.80
8894;BME280;4483;48.622;9.230;2023-03-08T12:08:41;95762.25;;;13.34;64.38
8894;BME280;4483;48.622;9.230;2023-03-08T12:11:12;95754.06;;;13.29;64.81
8894;BME280;4483;48.622;9.230;2023-03-08T12:13:46;95752.19;;;13.31;64.74
8894;BME280;4483;48.622;9.230;2023-03-08T12:16:17;95755.69;;;13.30;65.09
8894;BME280;4483;48.622;9.230;2023-03-08T12:18:49;95771.22;;;13.30;65.09
8894;BME280;4483;48.622;9.230;2023-03-08T12:21:26;95762.81;;;13.37;65.66
8894;BME280;4483;48.622;9.230;2023-03-08T12:24:04;95761.47;;;13.43;64.55
8894;BME280;4483;48.622;9.230;2023-03-08T12:26:39;95757.97;;;13.44;64.40
8894;BME280;4483;48.622;9.230;2023-03-08T12:29:12;95768.03;;;13.47;64.86
8894;BME280;4483;48.622;9.230;2023-03-08T12:31:43;95770.34;;;13.50;65.03
8894;BME280;4483;48.622;9.230;2023-03-08T12:34:12;95777.75;;;13.54;64.12
8894;BME280;4483;48.622;9.230;2023-03-08T12:36:41;95767.00;;;13.59;64.84
8894;BME280;4483;48.622;9.230;2023-03-08T12:39:25;95774.38;;;13.63;63.85
8894;BME280;4483;48.622;9.230;2023-03-08T12:41:57;95772.47;;;13.65;64.43
8894;BME280;4483;48.622;9.230;2023-03-08T12:44:25;95776.41;;;13.60;63.87
8894;BME280;4483;48.622;9.230;2023-03-08T12:46:56;95774.09;;;13.57;64.01
8894;BME280;4483;48.622;9.230;2023-03-08T12:49:27;95766.16;;;13.49;65.03
8894;BME280;4483;48.622;9.230;2023-03-08T12:52:00;95780.56;;;13.42;65.57
8894;BME280;4483;48.622;9.230;2023-03-08T12:54:30;95798.16;;;13.48;65.34
8894;BME280;4483;48.622;9.230;2023-03-08T12:56:59;95809.97;;;13.50;64.98
8894;BME280;4483;48.622;9.230;2023-03-08T12:59:32;95779.16;;;13.38;65.49
8894;BME280;4483;48.622;9.230;2023-03-08T13:02:14;95789.22;;;13.31;65.99
8894;BME280;4483;48.622;9.230;2023-03-08T13:04:47;95809.84;;;13.22;66.13
8894;BME280;4483;48.622;9.230;2023-03-08T13:07:21;95797.59;;;13.24;65.99
8894;BME280;4483;48.622;9.230;2023-03-08T13:09:57;95792.25;;;13.16;66.47
8894;BME280;4483;48.622;9.230;2023-03-08T13:12:52;95773.31;;;13.15;66.57
8894;BME280;4483;48.622;9.230;2023-03-08T13:15:24;95785.03;;;13.19;67.10
8894;BME280;4483;48.622;9.230;2023-03-08T13:17:57;95778.81;;;13.22;67.24
8894;BME280;4483;48.622;9.230;2023-03-08T13:20:28;95791.75;;;13.22;66.36
8894;BME280;4483;48.622;9.230;2023-03-08T13:23:03;95791.97;;;13.19;66.96
8894;BME280;4483;48.622;9.230;2023-03-08T13:25:50;95796.97;;;13.10;66.80
8894;BME280;4483;48.622;9.230;2023-03-08T13:28:21;95799.13;;;13.05;67.34
8894;BME280;4483;48.622;9.230;2023-03-08T13:30:50;95802.88;;;13.01;68.06
8894;BME280;4483;48.622;9.230;2023-03-08T13:33:20;95807.84;;;12.93;68.54
8894;BME280;4483;48.622;9.230;2023-03-08T13:35:55;95802.44;;;12.96;68.27
8894;BME280;4483;48.622;9.230;2023-03-08T13:38:23;95787.97;;;13.05;67.46
8894;BME280;4483;48.622;9.230;2023-03-08T13:40:52;95780.22;;;13.05;67.55
8894;BME280;4483;48.622;9.230;2023-03-08T13:43:20;95793.97;;;13.05;68.20
8894;BME280;4483;48.622;9.230;2023-03-08T13:45:47;95789.91;;;13.13;67.52
8894;BME280;4483;48.622;9.230;2023-03-08T13:48:15;95777.16;;;13.21;67.42